sensor_id;sensor_type;location;lat;lon;timestamp;P1;durP1;ratioP1;P2;durP2;ratioP2
54745;SDS011;40640;48.130;11.356;2022-10-03T00:01:27;4.32;;;3.50;;
54745;SDS011;40640;48.130;11.356;2022-10-03T00:05:44;7.18;;;3.95;;
54745;SDS011;40640;48.130;11.356;2022-10-03T00:10:02;3.83;;;3.40;;
54745;SDS011;40640;48.130;11.356;2022-10-03T00:14:17;4.38;;;3.63;;
54745;SDS011;40640;48.130;11.356;2022-10-03T00:18:33;4.85;;;3.58;;
54745;SDS011;40640;48.130;11.356;2022-10-03T00:22:45;4.43;;;3.70;;
54745;SDS011;40640;48.130;11.356;2022-10-03T00:26:55;6.70;;;4.25;;
54745;SDS011;40640;48.130;11.356;2022-10-03T00:31:07;5.53;;;4.30;;
54745;SDS011;40640;48.130;11.356;2022-10-03T00:35:20;8.40;;;5.13;;
54745;SDS011;40640;48.130;11.356;2022-10-03T00:39:38;6.13;;;4.85;;
54745;SDS011;40640;48.130;11.356;2022-10-03T00:44:00;6.30;;;5.00;;
54745;SDS011;40640;48.130;11.356;2022-10-03T00:48:31;6.10;;;5.25;;
54745;SDS011;40640;48.130;11.356;2022-10-03T00:57:40;7.90;;;5.32;;
54745;SDS011;40640;48.130;11.356;2022-10-03T01:06:23;8.43;;;5.35;;
54745;SDS011;40640;48.130;11.356;2022-10-03T01:10:38;6.97;;;5.43;;
54745;SDS011;40640;48.130;11.356;2022-10-03T01:14:55;7.93;;;5.00;;
54745;SDS011;40640;48.130;11.356;2022-10-03T01:19:20;10.57;;;5.45;;
54745;SDS011;40640;48.130;11.356;2022-10-03T01:28:27;7.65;;;5.75;;
54745;SDS011;40640;48.130;11.356;2022-10-03T01:33:05;13.60;;;6.00;;
54745;SDS011;40640;48.130;11.356;2022-10-03T01:37:13;7.47;;;5.55;;
54745;SDS011;40640;48.130;11.356;2022-10-03T01:41:26;9.05;;;6.13;;
54745;SDS011;40640;48.130;11.356;2022-10-03T01:45:36;10.48;;;6.38;;
54745;SDS011;40640;48.130;11.356;2022-10-03T01:49:50;10.15;;;6.55;;
54745;SDS011;40640;48.130;11.356;2022-10-03T01:54:00;9.68;;;7.20;;
54745;SDS011;40640;48.130;11.356;2022-10-03T01:58:18;11.68;;;6.93;;
54745;SDS011;40640;48.130;11.356;2022-10-03T02:02:29;13.82;;;7.85;;
54745;SDS011;40640;48.130;11.356;2022-10-03T02:06:39;9.80;;;7.00;;
54745;SDS011;40640;48.130;11.356;2022-10-03T02:10:49;15.60;;;7.32;;
54745;SDS011;40640;48.130;11.356;2022-10-03T02:14:58;10.57;;;7.03;;
54745;SDS011;40640;48.130;11.356;2022-10-03T02:19:05;12.77;;;6.93;;
54745;SDS011;40640;48.130;11.356;2022-10-03T02:23:23;11.35;;;7.45;;
54745;SDS011;40640;48.130;11.356;2022-10-03T02:27:43;11.73;;;7.63;;
54745;SDS011;40640;48.130;11.356;2022-10-03T02:37:02;12.20;;;6.95;;
54745;SDS011;40640;48.130;11.356;2022-10-03T02:41:23;9.05;;;6.75;;
54745;SDS011;40640;48.130;11.356;2022-10-03T02:50:37;11.23;;;7.38;;
54745;SDS011;40640;48.130;11.356;2022-10-03T02:55:12;10.27;;;7.32;;
54745;SDS011;40640;48.130;11.356;2022-10-03T02:59:37;11.18;;;7.28;;
54745;SDS011;40640;48.130;11.356;2022-10-03T03:18:28;10.43;;;6.30;;
54745;SDS011;40640;48.130;11.356;2022-10-03T03:22:39;10.30;;;6.85;;
54745;SDS011;40640;48.130;11.356;2022-10-03T03:26:59;15.90;;;8.82;;
54745;SDS011;40640;48.130;11.356;2022-10-03T03:31:25;14.32;;;8.55;;
54745;SDS011;40640;48.130;11.356;2022-10-03T03:35:37;18.00;;;9.90;;
54745;SDS011;40640;48.130;11.356;2022-10-03T03:39:49;15.35;;;8.77;;
54745;SDS011;40640;48.130;11.356;2022-10-03T03:44:23;13.80;;;8.65;;
54745;SDS011;40640;48.130;11.356;2022-10-03T03:48:49;13.50;;;8.35;;
54745;SDS011;40640;48.130;11.356;2022-10-03T03:53:10;14.80;;;8.65;;
54745;SDS011;40640;48.130;11.356;2022-10-03T04:02:00;13.40;;;8.40;;
54745;SDS011;40640;48.130;11.356;2022-10-03T04:06:17;11.35;;;7.25;;
54745;SDS011;40640;48.130;11.356;2022-10-03T04:10:35;13.18;;;8.25;;
54745;SDS011;40640;48.130;11.356;2022-10-03T04:19:23;12.48;;;7.80;;
54745;SDS011;40640;48.130;11.356;2022-10-03T04:23:41;12.32;;;7.50;;
54745;SDS011;40640;48.130;11.356;2022-10-03T04:28:02;19.40;;;8.40;;
54745;SDS011;40640;48.130;11.356;2022-10-03T04:32:25;16.83;;;8.85;;
54745;SDS011;40640;48.130;11.356;2022-10-03T04:36:55;13.68;;;9.25;;
54745;SDS011;40640;48.130;11.356;2022-10-03T04:41:23;19.40;;;10.20;;
54745;SDS011;40640;48.130;11.356;2022-10-03T04:45:36;18.70;;;9.77;;
54745;SDS011;40640;48.130;11.356;2022-10-03T04:49:47;15.30;;;9.35;;
54745;SDS011;40640;48.130;11.356;2022-10-03T04:53:57;15.57;;;10.05;;
54745;SDS011;40640;48.130;11.356;2022-10-03T04:58:06;24.23;;;12.20;;
54745;SDS011;40640;48.130;11.356;2022-10-03T05:02:22;26.42;;;12.82;;
54745;SDS011;40640;48.130;11.356;2022-10-03T05:06:35;23.02;;;11.15;;
54745;SDS011;40640;48.130;11.356;2022-10-03T05:10:54;20.10;;;11.27;;
54745;SDS011;40640;48.130;11.356;2022-10-03T05:15:10;17.38;;;10.27;;
54745;SDS011;40640;48.130;11.356;2022-10-03T05:23:51;17.70;;;11.10;;
54745;SDS011;40640;48.130;11.356;2022-10-03T05:28:05;26.30;;;10.88;;
54745;SDS011;40640;48.130;11.356;2022-10-03T05:32:22;18.02;;;10.52;;
54745;SDS011;40640;48.130;11.356;2022-10-03T05:36:30;21.30;;;11.00;;
54745;SDS011;40640;48.130;11.356;2022-10-03T05:40:37;21.05;;;10.32;;
54745;SDS011;40640;48.130;11.356;2022-10-03T05:44:42;24.90;;;11.30;;
54745;SDS011;40640;48.130;11.356;2022-10-03T05:48:52;18.90;;;10.43;;
54745;SDS011;40640;48.130;11.356;2022-10-03T05:53:07;19.40;;;10.57;;
54745;SDS011;40640;48.130;11.356;2022-10-03T05:57:25;22.02;;;11.57;;
54745;SDS011;40640;48.130;11.356;2022-10-03T06:06:19;23.70;;;10.52;;
54745;SDS011;40640;48.130;11.356;2022-10-03T06:10:38;29.00;;;12.13;;
54745;SDS011;40640;48.130;11.356;2022-10-03T06:15:05;25.98;;;13.85;;
54745;SDS011;40640;48.130;11.356;2022-10-03T06:19:29;48.15;;;13.75;;
54745;SDS011;40640;48.130;11.356;2022-10-03T06:23:48;56.55;;;14.48;;
54745;SDS011;40640;48.130;11.356;2022-10-03T06:33:09;160.23;;;14.45;;
54745;SDS011;40640;48.130;11.356;2022-10-03T06:37:46;78.90;;;15.05;;
54745;SDS011;40640;48.130;11.356;2022-10-03T06:42:18;39.33;;;13.02;;
54745;SDS011;40640;48.130;11.356;2022-10-03T06:56:11;30.13;;;13.43;;
54745;SDS011;40640;48.130;11.356;2022-10-03T07:00:45;25.63;;;15.13;;
54745;SDS011;40640;48.130;11.356;2022-10-03T07:09:58;17.92;;;11.65;;
54745;SDS011;40640;48.130;11.356;2022-10-03T07:14:16;17.42;;;11.13;;
54745;SDS011;40640;48.130;11.356;2022-10-03T07:23:45;15.98;;;11.23;;
54745;SDS011;40640;48.130;11.356;2022-10-03T07:28:06;17.35;;;10.55;;
54745;SDS011;40640;48.130;11.356;2022-10-03T07:32:36;19.80;;;9.40;;
54745;SDS011;40640;48.130;11.356;2022-10-03T07:55:28;15.38;;;10.52;;
54745;SDS011;40640;48.130;11.356;2022-10-03T07:59:48;14.75;;;10.13;;
54745;SDS011;40640;48.130;11.356;2022-10-03T08:04:32;10.27;;;6.70;;
54745;SDS011;40640;48.130;11.356;2022-10-03T08:08:55;17.67;;;9.55;;
54745;SDS011;40640;48.130;11.356;2022-10-03T08:13:15;24.13;;;8.93;;
54745;SDS011;40640;48.130;11.356;2022-10-03T08:22:14;15.50;;;9.45;;
54745;SDS011;40640;48.130;11.356;2022-10-03T08:26:33;14.55;;;7.60;;
54745;SDS011;40640;48.130;11.356;2022-10-03T08:30:54;14.27;;;7.38;;
54745;SDS011;40640;48.130;11.356;2022-10-03T08:39:56;17.73;;;8.85;;
54745;SDS011;40640;48.130;11.356;2022-10-03T08:48:59;11.95;;;6.45;;
54745;SDS011;40640;48.130;11.356;2022-10-03T08:53:22;11.63;;;6.20;;
54745;SDS011;40640;48.130;11.356;2022-10-03T08:57:53;15.60;;;6.55;;
54745;SDS011;40640;48.130;11.356;2022-10-03T09:07:14;9.82;;;5.85;;
54745;SDS011;40640;48.130;11.356;2022-10-03T09:11:43;9.68;;;6.45;;
54745;SDS011;40640;48.130;11.356;2022-10-03T09:16:13;12.32;;;5.75;;
54745;SDS011;40640;48.130;11.356;2022-10-03T09:20:47;13.18;;;3.40;;
54745;SDS011;40640;48.130;11.356;2022-10-03T09:25:22;6.93;;;2.97;;
54745;SDS011;40640;48.130;11.356;2022-10-03T09:29:35;7.38;;;2.67;;
54745;SDS011;40640;48.130;11.356;2022-10-03T09:33:54;6.28;;;2.58;;
54745;SDS011;40640;48.130;11.356;2022-10-03T09:47:58;8.07;;;3.78;;
54745;SDS011;40640;48.130;11.356;2022-10-03T09:52:33;10.77;;;3.75;;
54745;SDS011;40640;48.130;11.356;2022-10-03T09:57:12;6.75;;;3.45;;
54745;SDS011;40640;48.130;11.356;2022-10-03T10:01:42;10.23;;;3.10;;
54745;SDS011;40640;48.130;11.356;2022-10-03T10:10:49;8.68;;;4.38;;
54745;SDS011;40640;48.130;11.356;2022-10-03T10:15:13;8.23;;;4.68;;
54745;SDS011;40640;48.130;11.356;2022-10-03T10:24:22;11.27;;;3.65;;
54745;SDS011;40640;48.130;11.356;2022-10-03T10:33:33;5.70;;;2.45;;
54745;SDS011;40640;48.130;11.356;2022-10-03T10:38:06;5.95;;;2.28;;
54745;SDS011;40640;48.130;11.356;2022-10-03T10:43:05;9.95;;;2.80;;
54745;SDS011;40640;48.130;11.356;2022-10-03T10:47:44;5.93;;;2.95;;
54745;SDS011;40640;48.130;11.356;2022-10-03T10:57:20;8.88;;;2.80;;
54745;SDS011;40640;48.130;11.356;2022-10-03T11:01:52;5.78;;;2.72;;
54745;SDS011;40640;48.130;11.356;2022-10-03T11:11:00;3.92;;;1.75;;
54745;SDS011;40640;48.130;11.356;2022-10-03T11:15:23;5.30;;;2.03;;
54745;SDS011;40640;48.130;11.356;2022-10-03T11:29:52;4.35;;;2.10;;
54745;SDS011;40640;48.130;11.356;2022-10-03T11:38:50;5.57;;;2.35;;
54745;SDS011;40640;48.130;11.356;2022-10-03T11:43:15;8.68;;;2.20;;
54745;SDS011;40640;48.130;11.356;2022-10-03T11:47:52;4.75;;;2.30;;
54745;SDS011;40640;48.130;11.356;2022-10-03T11:52:04;6.13;;;2.00;;
54745;SDS011;40640;48.130;11.356;2022-10-03T11:56:32;5.90;;;1.90;;
54745;SDS011;40640;48.130;11.356;2022-10-03T12:00:40;5.25;;;2.00;;
54745;SDS011;40640;48.130;11.356;2022-10-03T12:04:51;6.13;;;2.40;;
54745;SDS011;40640;48.130;11.356;2022-10-03T12:09:01;3.87;;;1.70;;
54745;SDS011;40640;48.130;11.356;2022-10-03T12:13:16;4.90;;;2.30;;
54745;SDS011;40640;48.130;11.356;2022-10-03T12:17:26;4.82;;;2.25;;
54745;SDS011;40640;48.130;11.356;2022-10-03T12:21:37;6.15;;;2.15;;
54745;SDS011;40640;48.130;11.356;2022-10-03T12:25:49;3.75;;;2.67;;
54745;SDS011;40640;48.130;11.356;2022-10-03T12:34:00;4.15;;;2.20;;
54745;SDS011;40640;48.130;11.356;2022-10-03T12:38:24;5.78;;;1.98;;
54745;SDS011;40640;48.130;11.356;2022-10-03T12:42:40;3.53;;;1.80;;
54745;SDS011;40640;48.130;11.356;2022-10-03T12:46:50;4.65;;;1.67;;
54745;SDS011;40640;48.130;11.356;2022-10-03T12:51:05;3.13;;;1.80;;
54745;SDS011;40640;48.130;11.356;2022-10-03T12:55:21;5.45;;;1.60;;
54745;SDS011;40640;48.130;11.356;2022-10-03T12:59:30;3.03;;;1.63;;
54745;SDS011;40640;48.130;11.356;2022-10-03T13:03:39;3.67;;;1.55;;
54745;SDS011;40640;48.130;11.356;2022-10-03T13:07:53;5.00;;;2.22;;
54745;SDS011;40640;48.130;11.356;2022-10-03T13:12:01;3.40;;;1.80;;
54745;SDS011;40640;48.130;11.356;2022-10-03T13:16:15;7.70;;;2.00;;
54745;SDS011;40640;48.130;11.356;2022-10-03T13:20:24;8.10;;;2.30;;
54745;SDS011;40640;48.130;11.356;2022-10-03T13:24:34;9.05;;;2.65;;
54745;SDS011;40640;48.130;11.356;2022-10-03T13:28:46;5.32;;;2.30;;
54745;SDS011;40640;48.130;11.356;2022-10-03T13:33:00;4.63;;;2.22;;
54745;SDS011;40640;48.130;11.356;2022-10-03T13:37:11;4.40;;;2.53;;
54745;SDS011;40640;48.130;11.356;2022-10-03T13:41:21;4.68;;;2.70;;
54745;SDS011;40640;48.130;11.356;2022-10-03T13:45:30;7.22;;;2.63;;
54745;SDS011;40640;48.130;11.356;2022-10-03T13:49:36;4.32;;;2.08;;
54745;SDS011;40640;48.130;11.356;2022-10-03T13:53:54;6.80;;;2.70;;
54745;SDS011;40640;48.130;11.356;2022-10-03T14:02:37;5.60;;;2.50;;
54745;SDS011;40640;48.130;11.356;2022-10-03T14:06:45;7.43;;;2.45;;
54745;SDS011;40640;48.130;11.356;2022-10-03T14:11:00;9.10;;;2.78;;
54745;SDS011;40640;48.130;11.356;2022-10-03T14:15:15;13.30;;;3.35;;
54745;SDS011;40640;48.130;11.356;2022-10-03T14:19:29;6.38;;;2.78;;
54745;SDS011;40640;48.130;11.356;2022-10-03T14:23:42;6.70;;;2.77;;
54745;SDS011;40640;48.130;11.356;2022-10-03T14:27:52;5.75;;;2.28;;
54745;SDS011;40640;48.130;11.356;2022-10-03T14:31:57;8.30;;;2.67;;
54745;SDS011;40640;48.130;11.356;2022-10-03T14:36:13;6.75;;;2.53;;
54745;SDS011;40640;48.130;11.356;2022-10-03T14:40:33;5.30;;;2.20;;
54745;SDS011;40640;48.130;11.356;2022-10-03T14:44:43;5.03;;;2.17;;
54745;SDS011;40640;48.130;11.356;2022-10-03T14:52:55;4.88;;;2.30;;
54745;SDS011;40640;48.130;11.356;2022-10-03T14:57:11;4.28;;;2.17;;
54745;SDS011;40640;48.130;11.356;2022-10-03T15:01:23;8.65;;;3.17;;
54745;SDS011;40640;48.130;11.356;2022-10-03T15:05:31;5.18;;;2.67;;
54745;SDS011;40640;48.130;11.356;2022-10-03T15:09:41;8.40;;;2.78;;
54745;SDS011;40640;48.130;11.356;2022-10-03T15:13:52;9.75;;;2.70;;
54745;SDS011;40640;48.130;11.356;2022-10-03T15:17:58;10.10;;;2.80;;
54745;SDS011;40640;48.130;11.356;2022-10-03T15:22:10;4.72;;;2.35;;
54745;SDS011;40640;48.130;11.356;2022-10-03T15:26:25;7.95;;;2.50;;
54745;SDS011;40640;48.130;11.356;2022-10-03T15:30:32;7.15;;;2.83;;
54745;SDS011;40640;48.130;11.356;2022-10-03T15:34:37;7.40;;;2.85;;
54745;SDS011;40640;48.130;11.356;2022-10-03T15:38:42;6.18;;;2.92;;
54745;SDS011;40640;48.130;11.356;2022-10-03T15:42:51;6.75;;;2.95;;
54745;SDS011;40640;48.130;11.356;2022-10-03T15:47:04;6.20;;;2.58;;
54745;SDS011;40640;48.130;11.356;2022-10-03T15:55:19;8.52;;;2.33;;
54745;SDS011;40640;48.130;11.356;2022-10-03T15:59:28;11.27;;;2.53;;
54745;SDS011;40640;48.130;11.356;2022-10-03T16:03:37;11.43;;;2.45;;
54745;SDS011;40640;48.130;11.356;2022-10-03T16:07:46;7.35;;;2.63;;
54745;SDS011;40640;48.130;11.356;2022-10-03T16:12:00;6.00;;;3.08;;
54745;SDS011;40640;48.130;11.356;2022-10-03T16:16:15;9.60;;;3.13;;
54745;SDS011;40640;48.130;11.356;2022-10-03T16:20:21;7.75;;;3.60;;
54745;SDS011;40640;48.130;11.356;2022-10-03T16:24:28;10.70;;;3.47;;
54745;SDS011;40640;48.130;11.356;2022-10-03T16:28:36;10.02;;;3.03;;
54745;SDS011;40640;48.130;11.356;2022-10-03T16:32:46;12.43;;;4.10;;
54745;SDS011;40640;48.130;11.356;2022-10-03T16:36:53;6.47;;;2.70;;
54745;SDS011;40640;48.130;11.356;2022-10-03T16:40:56;9.88;;;3.00;;
54745;SDS011;40640;48.130;11.356;2022-10-03T16:45:02;9.87;;;3.10;;
54745;SDS011;40640;48.130;11.356;2022-10-03T16:49:10;9.57;;;3.00;;
54745;SDS011;40640;48.130;11.356;2022-10-03T16:53:41;8.68;;;2.78;;
54745;SDS011;40640;48.130;11.356;2022-10-03T16:57:46;8.02;;;3.63;;
54745;SDS011;40640;48.130;11.356;2022-10-03T17:05:58;8.13;;;3.20;;
54745;SDS011;40640;48.130;11.356;2022-10-03T17:14:07;6.65;;;3.58;;
54745;SDS011;40640;48.130;11.356;2022-10-03T17:18:14;11.32;;;3.85;;
54745;SDS011;40640;48.130;11.356;2022-10-03T17:22:28;8.35;;;4.57;;
54745;SDS011;40640;48.130;11.356;2022-10-03T17:26:36;11.93;;;6.00;;
54745;SDS011;40640;48.130;11.356;2022-10-03T17:30:42;10.38;;;6.80;;
54745;SDS011;40640;48.130;11.356;2022-10-03T17:34:50;15.70;;;6.93;;
54745;SDS011;40640;48.130;11.356;2022-10-03T17:38:59;9.95;;;6.68;;
54745;SDS011;40640;48.130;11.356;2022-10-03T17:43:05;12.13;;;6.13;;
54745;SDS011;40640;48.130;11.356;2022-10-03T17:47:18;15.15;;;7.13;;
54745;SDS011;40640;48.130;11.356;2022-10-03T17:51:27;18.08;;;10.15;;
54745;SDS011;40640;48.130;11.356;2022-10-03T17:55:36;20.40;;;10.07;;
54745;SDS011;40640;48.130;11.356;2022-10-03T17:59:42;22.15;;;10.80;;
54745;SDS011;40640;48.130;11.356;2022-10-03T18:03:52;13.65;;;9.07;;
54745;SDS011;40640;48.130;11.356;2022-10-03T18:08:00;14.63;;;9.00;;
54745;SDS011;40640;48.130;11.356;2022-10-03T18:12:13;13.38;;;6.22;;
54745;SDS011;40640;48.130;11.356;2022-10-03T18:16:24;9.88;;;5.55;;
54745;SDS011;40640;48.130;11.356;2022-10-03T18:20:39;14.38;;;5.95;;
54745;SDS011;40640;48.130;11.356;2022-10-03T18:24:52;14.50;;;6.55;;
54745;SDS011;40640;48.130;11.356;2022-10-03T18:29:00;17.05;;;7.15;;
54745;SDS011;40640;48.130;11.356;2022-10-03T18:33:25;16.52;;;7.70;;
54745;SDS011;40640;48.130;11.356;2022-10-03T18:42:11;13.68;;;6.80;;
54745;SDS011;40640;48.130;11.356;2022-10-03T18:46:16;61.35;;;25.55;;
54745;SDS011;40640;48.130;11.356;2022-10-03T18:50:26;40.13;;;19.15;;
54745;SDS011;40640;48.130;11.356;2022-10-03T18:54:36;17.73;;;7.35;;
54745;SDS011;40640;48.130;11.356;2022-10-03T18:58:54;12.20;;;6.43;;
54745;SDS011;40640;48.130;11.356;2022-10-03T19:03:10;23.33;;;11.80;;
54745;SDS011;40640;48.130;11.356;2022-10-03T19:07:17;40.95;;;21.25;;
54745;SDS011;40640;48.130;11.356;2022-10-03T19:11:23;43.00;;;24.25;;
54745;SDS011;40640;48.130;11.356;2022-10-03T19:15:35;15.48;;;9.80;;
54745;SDS011;40640;48.130;11.356;2022-10-03T19:19:58;12.00;;;6.03;;
54745;SDS011;40640;48.130;11.356;2022-10-03T19:24:13;11.88;;;5.80;;
54745;SDS011;40640;48.130;11.356;2022-10-03T19:28:42;7.88;;;5.05;;
54745;SDS011;40640;48.130;11.356;2022-10-03T19:32:51;9.07;;;5.00;;
54745;SDS011;40640;48.130;11.356;2022-10-03T19:36:58;9.30;;;5.25;;
54745;SDS011;40640;48.130;11.356;2022-10-03T19:41:03;9.98;;;5.70;;
54745;SDS011;40640;48.130;11.356;2022-10-03T19:45:10;10.00;;;5.18;;
54745;SDS011;40640;48.130;11.356;2022-10-03T19:49:19;13.18;;;5.68;;
54745;SDS011;40640;48.130;11.356;2022-10-03T19:53:27;11.32;;;5.57;;
54745;SDS011;40640;48.130;11.356;2022-10-03T19:57:37;8.52;;;5.03;;
54745;SDS011;40640;48.130;11.356;2022-10-03T20:01:42;11.95;;;5.43;;
54745;SDS011;40640;48.130;11.356;2022-10-03T20:05:49;8.05;;;5.05;;
54745;SDS011;40640;48.130;11.356;2022-10-03T20:10:02;11.43;;;4.97;;
54745;SDS011;40640;48.130;11.356;2022-10-03T20:14:18;15.07;;;5.47;;
54745;SDS011;40640;48.130;11.356;2022-10-03T20:18:24;17.52;;;8.05;;
54745;SDS011;40640;48.130;11.356;2022-10-03T20:26:38;12.73;;;6.07;;
54745;SDS011;40640;48.130;11.356;2022-10-03T20:30:47;14.95;;;7.38;;
54745;SDS011;40640;48.130;11.356;2022-10-03T20:34:52;16.05;;;7.00;;
54745;SDS011;40640;48.130;11.356;2022-10-03T20:39:03;11.48;;;6.13;;
54745;SDS011;40640;48.130;11.356;2022-10-03T20:43:24;21.35;;;6.65;;
54745;SDS011;40640;48.130;11.356;2022-10-03T20:47:46;12.00;;;5.63;;
54745;SDS011;40640;48.130;11.356;2022-10-03T20:51:57;14.23;;;5.50;;
54745;SDS011;40640;48.130;11.356;2022-10-03T20:56:03;10.85;;;5.85;;
54745;SDS011;40640;48.130;11.356;2022-10-03T21:00:16;15.65;;;5.50;;
54745;SDS011;40640;48.130;11.356;2022-10-03T21:04:23;10.52;;;5.53;;
54745;SDS011;40640;48.130;11.356;2022-10-03T21:08:32;11.50;;;5.22;;
54745;SDS011;40640;48.130;11.356;2022-10-03T21:16:43;10.95;;;5.10;;
54745;SDS011;40640;48.130;11.356;2022-10-03T21:20:54;11.98;;;5.40;;
54745;SDS011;40640;48.130;11.356;2022-10-03T21:25:03;11.77;;;4.85;;
54745;SDS011;40640;48.130;11.356;2022-10-03T21:29:23;10.70;;;4.97;;
54745;SDS011;40640;48.130;11.356;2022-10-03T21:33:30;11.70;;;5.40;;
54745;SDS011;40640;48.130;11.356;2022-10-03T21:37:41;9.95;;;5.45;;
54745;SDS011;40640;48.130;11.356;2022-10-03T21:41:52;9.07;;;4.93;;
54745;SDS011;40640;48.130;11.356;2022-10-03T21:46:05;7.00;;;4.35;;
54745;SDS011;40640;48.130;11.356;2022-10-03T21:50:18;13.90;;;5.70;;
54745;SDS011;40640;48.130;11.356;2022-10-03T21:54:26;7.70;;;3.85;;
54745;SDS011;40640;48.130;11.356;2022-10-03T21:58:43;5.00;;;3.42;;
54745;SDS011;40640;48.130;11.356;2022-10-03T22:03:04;8.70;;;3.80;;
54745;SDS011;40640;48.130;11.356;2022-10-03T22:07:12;7.82;;;3.85;;
54745;SDS011;40640;48.130;11.356;2022-10-03T22:11:21;8.43;;;4.45;;
54745;SDS011;40640;48.130;11.356;2022-10-03T22:15:36;11.20;;;4.63;;
54745;SDS011;40640;48.130;11.356;2022-10-03T22:19:44;6.05;;;4.38;;
54745;SDS011;40640;48.130;11.356;2022-10-03T22:23:55;7.60;;;4.13;;
54745;SDS011;40640;48.130;11.356;2022-10-03T22:28:06;10.88;;;4.82;;
54745;SDS011;40640;48.130;11.356;2022-10-03T22:32:17;9.95;;;4.88;;
54745;SDS011;40640;48.130;11.356;2022-10-03T22:36:25;9.20;;;4.82;;
54745;SDS011;40640;48.130;11.356;2022-10-03T22:40:31;7.10;;;4.40;;
54745;SDS011;40640;48.130;11.356;2022-10-03T22:44:35;6.82;;;4.45;;
54745;SDS011;40640;48.130;11.356;2022-10-03T22:48:40;6.95;;;4.25;;
54745;SDS011;40640;48.130;11.356;2022-10-03T22:52:46;11.02;;;4.20;;
54745;SDS011;40640;48.130;11.356;2022-10-03T22:56:53;7.15;;;4.25;;
54745;SDS011;40640;48.130;11.356;2022-10-03T23:00:59;9.40;;;3.78;;
54745;SDS011;40640;48.130;11.356;2022-10-03T23:05:03;8.45;;;4.07;;
54745;SDS011;40640;48.130;11.356;2022-10-03T23:09:11;7.47;;;4.30;;
54745;SDS011;40640;48.130;11.356;2022-10-03T23:13:25;12.93;;;4.88;;
54745;SDS011;40640;48.130;11.356;2022-10-03T23:17:44;9.05;;;3.80;;
54745;SDS011;40640;48.130;11.356;2022-10-03T23:21:58;6.57;;;3.42;;
54745;SDS011;40640;48.130;11.356;2022-10-03T23:26:20;6.88;;;3.83;;
54745;SDS011;40640;48.130;11.356;2022-10-03T23:39:28;9.63;;;3.78;;
54745;SDS011;40640;48.130;11.356;2022-10-03T23:43:34;7.03;;;3.80;;
54745;SDS011;40640;48.130;11.356;2022-10-03T23:47:41;9.23;;;3.42;;
54745;SDS011;40640;48.130;11.356;2022-10-03T23:51:46;7.30;;;3.35;;
54745;SDS011;40640;48.130;11.356;2022-10-03T23:55:50;6.82;;;3.35;;
54745;SDS011;40640;48.130;11.356;2022-10-03T23:59:53;4.93;;;3.05;;
